Time;durP1;ratioP1;P1;durP2;ratioP2;P2;SDS_P1;SDS_P2;PMS_P1;PMS_P2;Temp;Humidity;BMP_temperature;BMP_pressure;BME280_temperature;BME280_humidity;BME280_pressure;Samples;Min_cycle;Max_cycle;Signal;HPM_P1;HPM_P2
2021/04/19 00:01:09;;;;;;;20.98;18.77;;;5.80;99.90;;;;;;5053761;28;20208;-40
2021/04/19 00:03:36;;;;;;;25.63;20.90;;;5.80;99.90;;;;;;5053870;28;20231;-40
2021/04/19 00:06:05;;;;;;;22.48;19.77;;;5.80;99.90;;;;;;5053679;28;20208;-39
2021/04/19 00:08:32;;;;;;;21.77;18.77;;;5.70;99.90;;;;;;5053877;28;20204;-40
2021/04/19 00:10:59;;;;;;;21.35;18.70;;;5.80;99.90;;;;;;5053656;28;20212;-40
2021/04/19 00:13:26;;;;;;;21.95;19.15;;;5.80;99.90;;;;;;5053560;28;20232;-40
2021/04/19 00:15:54;;;;;;;22.25;18.75;;;5.80;99.90;;;;;;5053543;28;20555;-40
2021/04/19 00:18:21;;;;;;;22.50;19.27;;;5.90;99.90;;;;;;5053776;28;20229;-40
2021/04/19 00:20:48;;;;;;;24.83;22.13;;;5.90;99.90;;;;;;5053581;28;20214;-41
2021/04/19 00:23:15;;;;;;;35.63;26.60;;;5.90;99.90;;;;;;5053331;28;20787;-41
2021/04/19 00:25:42;;;;;;;38.30;27.52;;;5.90;99.90;;;;;;5053441;28;20211;-40
2021/04/19 00:28:09;;;;;;;31.33;25.63;;;5.90;99.90;;;;;;5053086;28;20274;-40
2021/04/19 00:30:36;;;;;;;26.58;21.55;;;6.00;99.90;;;;;;5053070;28;20204;-40
2021/04/19 00:33:05;;;;;;;31.63;25.02;;;6.10;99.90;;;;;;5053496;28;20578;-38
2021/04/19 00:35:33;;;;;;;31.25;25.13;;;6.10;99.90;;;;;;5053181;28;20254;-39
2021/04/19 00:38:00;;;;;;;22.90;19.73;;;6.10;99.90;;;;;;5053117;28;20393;-40
2021/04/19 00:40:27;;;;;;;23.55;19.40;;;6.10;99.90;;;;;;5053029;28;20208;-39
2021/04/19 00:42:55;;;;;;;22.10;19.70;;;6.00;99.90;;;;;;5052823;28;20228;-40
2021/04/19 00:45:22;;;;;;;23.58;20.65;;;6.00;99.90;;;;;;5053190;28;20341;-40
2021/04/19 00:47:49;;;;;;;21.40;18.08;;;6.00;99.90;;;;;;5052980;28;20298;-41
2021/04/19 00:50:19;;;;;;;22.30;19.45;;;6.10;99.90;;;;;;5052942;28;20258;-41
2021/04/19 00:52:47;;;;;;;20.80;17.63;;;6.20;99.90;;;;;;5053169;28;20300;-41
2021/04/19 00:55:16;;;;;;;21.77;19.40;;;6.20;99.90;;;;;;5052642;28;20663;-41
2021/04/19 00:57:43;;;;;;;21.58;19.38;;;6.30;99.90;;;;;;5052931;28;20212;-41
2021/04/19 01:00:14;;;;;;;22.83;19.50;;;6.40;99.90;;;;;;5052577;28;20311;-41
2021/04/19 01:02:42;;;;;;;22.17;18.88;;;6.40;99.90;;;;;;5052490;28;20212;-41
2021/04/19 01:05:12;;;;;;;24.20;20.77;;;6.50;99.90;;;;;;5052693;28;20211;-41
2021/04/19 01:07:39;;;;;;;22.48;20.13;;;6.50;99.90;;;;;;5052032;28;20310;-41
2021/04/19 01:10:08;;;;;;;21.73;18.30;;;6.50;99.90;;;;;;5052535;28;20353;-40
2021/04/19 01:12:35;;;;;;;22.02;18.67;;;6.50;99.90;;;;;;5052824;28;20208;-40
2021/04/19 01:15:03;;;;;;;21.60;18.17;;;6.50;99.90;;;;;;5052598;28;20589;-40
2021/04/19 01:17:29;;;;;;;23.52;18.80;;;6.40;99.90;;;;;;5052241;28;20753;-41
2021/04/19 01:19:57;;;;;;;22.15;19.40;;;6.40;99.90;;;;;;5052435;28;20242;-41
2021/04/19 01:22:25;;;;;;;22.90;20.40;;;6.40;99.90;;;;;;5052470;28;20214;-41
2021/04/19 01:24:52;;;;;;;23.17;19.40;;;6.40;99.90;;;;;;5052557;28;20331;-41
2021/04/19 01:27:19;;;;;;;22.73;19.27;;;6.40;99.90;;;;;;5052351;28;20774;-41
2021/04/19 01:29:45;;;;;;;21.35;18.95;;;6.50;99.90;;;;;;5052311;28;20224;-41
2021/04/19 01:32:13;;;;;;;22.40;18.60;;;6.50;99.90;;;;;;5052135;28;20283;-40
2021/04/19 01:34:40;;;;;;;21.85;18.70;;;6.50;99.90;;;;;;5052198;28;20204;-41
2021/04/19 01:37:07;;;;;;;21.33;18.15;;;6.50;99.90;;;;;;5052284;28;20637;-41
2021/04/19 01:39:35;;;;;;;22.98;18.55;;;6.40;99.90;;;;;;5052244;28;20212;-41
2021/04/19 01:42:02;;;;;;;23.23;20.08;;;6.40;99.90;;;;;;5052195;28;20294;-40
2021/04/19 01:44:29;;;;;;;20.67;17.85;;;6.40;99.90;;;;;;5052292;28;20328;-40
2021/04/19 01:46:56;;;;;;;22.98;19.05;;;6.40;99.90;;;;;;5052002;28;20310;-39
2021/04/19 01:49:24;;;;;;;20.63;18.40;;;6.40;99.90;;;;;;5051870;28;20208;-39
2021/04/19 01:51:51;;;;;;;24.20;19.55;;;6.40;99.90;;;;;;5052263;28;20295;-39
2021/04/19 01:54:18;;;;;;;20.48;18.27;;;6.40;99.90;;;;;;5051867;28;20758;-39
2021/04/19 01:56:45;;;;;;;19.92;17.77;;;6.40;99.90;;;;;;5052042;28;20239;-40
2021/04/19 01:59:13;;;;;;;20.98;18.75;;;6.30;99.90;;;;;;5052084;28;20208;-39
2021/04/19 02:01:46;;;;;;;24.42;20.00;;;6.30;99.90;;;;;;5051917;28;20639;-38
2021/04/19 02:04:16;;;;;;;26.17;20.67;;;6.20;99.90;;;;;;5052293;28;20219;-39
2021/04/19 02:06:51;;;;;;;22.55;18.35;;;6.20;99.90;;;;;;5051888;28;20218;-38
2021/04/19 02:09:22;;;;;;;22.13;18.98;;;6.10;99.90;;;;;;5051884;28;20246;-38
2021/04/19 02:12:01;;;;;;;21.42;18.05;;;6.10;99.90;;;;;;5052015;28;20340;-38
2021/04/19 02:14:38;;;;;;;20.10;17.92;;;6.00;99.90;;;;;;5051822;28;20295;-38
2021/04/19 02:17:14;;;;;;;24.40;19.25;;;6.00;99.90;;;;;;5052112;28;20627;-39
2021/04/19 02:19:44;;;;;;;21.63;18.77;;;5.90;99.90;;;;;;5053306;28;20211;-39
2021/04/19 02:22:16;;;;;;;20.40;18.20;;;5.90;99.90;;;;;;5055682;28;20335;-38
2021/04/19 02:24:47;;;;;;;32.40;26.08;;;5.80;99.90;;;;;;5055587;28;20323;-39
2021/04/19 02:27:24;;;;;;;24.52;20.13;;;5.70;99.90;;;;;;5055798;28;20294;-38
2021/04/19 02:29:54;;;;;;;24.77;19.17;;;5.60;99.90;;;;;;5055799;28;20290;-39
2021/04/19 02:32:27;;;;;;;21.48;19.15;;;5.60;99.90;;;;;;5055364;28;20272;-39
2021/04/19 02:34:59;;;;;;;25.38;19.30;;;5.60;99.90;;;;;;5055513;28;20265;-38
2021/04/19 02:37:27;;;;;;;21.73;18.75;;;5.60;99.90;;;;;;5055351;28;20236;-38
2021/04/19 02:39:57;;;;;;;21.90;19.55;;;5.60;99.90;;;;;;5055704;28;20287;-38
2021/04/19 02:42:26;;;;;;;19.95;17.83;;;5.50;99.90;;;;;;5055537;28;20212;-38
2021/04/19 02:44:55;;;;;;;27.40;21.58;;;5.50;99.90;;;;;;5055323;28;20373;-40
2021/04/19 02:47:23;;;;;;;22.33;18.98;;;5.40;99.90;;;;;;5055420;28;20204;-40
2021/04/19 02:49:50;;;;;;;23.25;19.15;;;5.40;99.90;;;;;;5055326;28;20254;-38
2021/04/19 02:52:18;;;;;;;32.83;25.88;;;5.40;99.90;;;;;;5055429;28;20295;-39
2021/04/19 02:54:46;;;;;;;39.83;30.63;;;5.40;99.90;;;;;;5055317;28;20626;-39
2021/04/19 02:57:23;;;;;;;22.38;19.42;;;5.40;99.90;;;;;;5055266;28;20302;-39
2021/04/19 02:59:52;;;;;;;22.00;18.33;;;5.40;99.90;;;;;;5055326;28;20251;-39
2021/04/19 03:02:23;;;;;;;21.38;17.90;;;5.50;99.90;;;;;;5055089;28;20299;-39
2021/04/19 03:04:51;;;;;;;22.48;19.23;;;5.60;99.90;;;;;;5055352;28;20235;-39
2021/04/19 03:07:21;;;;;;;23.25;19.02;;;5.60;99.90;;;;;;5055270;28;20243;-39
2021/04/19 03:09:54;;;;;;;26.17;20.42;;;5.70;99.90;;;;;;5055120;28;20631;-38
2021/04/19 03:12:24;;;;;;;22.90;19.38;;;5.80;99.90;;;;;;5054964;28;20208;-38
2021/04/19 03:14:57;;;;;;;23.00;20.58;;;5.90;99.90;;;;;;5054787;28;20633;-38
2021/04/19 03:17:25;;;;;;;24.10;19.48;;;5.90;99.90;;;;;;5055120;28;20303;-39
2021/04/19 03:19:58;;;;;;;20.52;18.35;;;6.00;99.90;;;;;;5054978;28;20243;-39
2021/04/19 03:22:27;;;;;;;21.15;17.65;;;6.00;99.90;;;;;;5054821;28;20218;-39
2021/04/19 03:24:55;;;;;;;21.40;19.08;;;6.10;99.90;;;;;;5054693;28;20236;-39
2021/04/19 03:27:24;;;;;;;27.08;21.20;;;6.10;99.90;;;;;;5054572;28;20204;-39
2021/04/19 03:29:52;;;;;;;22.48;18.67;;;6.20;99.90;;;;;;5054606;28;20239;-40
2021/04/19 03:32:24;;;;;;;23.73;19.25;;;6.20;99.90;;;;;;5054490;28;20640;-40
2021/04/19 03:34:54;;;;;;;26.30;20.65;;;6.10;99.90;;;;;;5054639;28;20203;-38
2021/04/19 03:37:26;;;;;;;23.30;20.50;;;6.20;99.90;;;;;;5054406;28;20612;-38
2021/04/19 03:39:58;;;;;;;21.98;17.15;;;6.20;99.90;;;;;;5054413;28;20212;-38
2021/04/19 03:42:26;;;;;;;22.00;18.95;;;6.30;99.90;;;;;;5054668;28;20218;-38
2021/04/19 03:44:55;;;;;;;22.80;18.55;;;6.20;99.90;;;;;;5054423;28;20334;-38
2021/04/19 03:47:23;;;;;;;23.85;20.48;;;6.20;99.90;;;;;;5054097;28;20291;-37
2021/04/19 03:49:54;;;;;;;26.15;21.50;;;6.10;99.90;;;;;;5054275;28;20236;-38
2021/04/19 03:52:25;;;;;;;23.10;19.73;;;6.10;99.90;;;;;;5054165;28;20257;-38
2021/04/19 03:54:53;;;;;;;25.05;21.17;;;6.00;99.90;;;;;;5054323;28;20290;-39
2021/04/19 03:57:23;;;;;;;24.00;20.13;;;5.90;99.90;;;;;;5054304;28;20305;-40
2021/04/19 03:59:52;;;;;;;25.05;19.42;;;5.90;99.90;;;;;;5054269;28;20216;-41
2021/04/19 04:02:22;;;;;;;22.98;19.63;;;5.90;99.90;;;;;;5053701;28;20223;-41
2021/04/19 04:04:51;;;;;;;25.33;19.48;;;5.90;99.90;;;;;;5053502;28;20231;-40
2021/04/19 04:07:20;;;;;;;24.70;21.20;;;5.90;99.90;;;;;;5053862;28;20243;-39
2021/04/19 04:09:49;;;;;;;22.83;19.25;;;5.90;99.90;;;;;;5053860;28;20303;-39
2021/04/19 04:12:16;;;;;;;26.02;21.17;;;5.80;99.90;;;;;;5053746;28;20302;-40
2021/04/19 04:14:51;;;;;;;23.80;20.98;;;5.80;99.90;;;;;;5053770;28;20246;-41
2021/04/19 04:17:18;;;;;;;27.08;22.15;;;5.70;99.90;;;;;;5053629;28;20239;-39
2021/04/19 04:19:46;;;;;;;25.23;21.40;;;5.70;99.90;;;;;;5053675;28;20295;-39
2021/04/19 04:22:14;;;;;;;24.13;20.48;;;5.60;99.90;;;;;;5053764;28;20204;-40
2021/04/19 04:24:42;;;;;;;23.40;19.48;;;5.60;99.90;;;;;;5053455;28;20323;-39
2021/04/19 04:27:10;;;;;;;26.15;21.50;;;5.50;99.90;;;;;;5053499;28;20628;-38
2021/04/19 04:29:37;;;;;;;24.38;19.77;;;5.50;99.90;;;;;;5053565;28;20331;-38
2021/04/19 04:32:07;;;;;;;28.17;21.95;;;5.50;99.90;;;;;;5053090;28;20243;-38
2021/04/19 04:34:34;;;;;;;26.83;20.88;;;5.60;99.90;;;;;;5053195;28;20208;-39
2021/04/19 04:37:02;;;;;;;22.73;19.50;;;5.60;99.90;;;;;;5053274;28;20208;-39
2021/04/19 04:39:29;;;;;;;25.52;20.73;;;5.70;99.90;;;;;;5055182;28;20275;-39
2021/04/19 04:41:56;;;;;;;26.45;21.98;;;5.70;99.90;;;;;;5053981;28;20204;-39
2021/04/19 04:44:28;;;;;;;21.98;19.10;;;5.70;99.90;;;;;;5053052;28;20227;-39
2021/04/19 04:47:08;;;;;;;25.92;20.67;;;5.70;99.90;;;;;;5053426;28;20250;-40
2021/04/19 04:49:42;;;;;;;22.25;19.42;;;5.80;99.90;;;;;;5053623;28;20254;-40
2021/04/19 04:52:13;;;;;;;26.15;20.38;;;5.80;99.90;;;;;;5053846;28;20244;-40
2021/04/19 04:54:44;;;;;;;22.98;20.17;;;5.70;99.90;;;;;;5053571;28;20214;-40
2021/04/19 04:57:14;;;;;;;24.85;19.60;;;5.70;99.90;;;;;;5053176;28;20618;-40
2021/04/19 04:59:41;;;;;;;27.48;20.45;;;5.70;99.90;;;;;;5053702;28;20211;-40
2021/04/19 05:02:10;;;;;;;29.88;20.83;;;5.80;99.90;;;;;;5053216;28;20204;-40
2021/04/19 05:04:37;;;;;;;23.83;19.95;;;5.90;99.90;;;;;;5052265;28;20228;-40
2021/04/19 05:07:05;;;;;;;25.52;20.02;;;6.00;99.90;;;;;;5052471;28;20239;-40
2021/04/19 05:09:33;;;;;;;25.83;21.73;;;6.00;99.90;;;;;;5052682;28;20212;-41
2021/04/19 05:12:00;;;;;;;27.90;21.10;;;6.10;99.90;;;;;;5052161;28;20749;-40
2021/04/19 05:14:27;;;;;;;26.08;21.63;;;6.10;99.90;;;;;;5052463;28;20243;-40
2021/04/19 05:16:54;;;;;;;26.88;21.48;;;6.30;99.90;;;;;;5052762;28;20208;-40
2021/04/19 05:19:21;;;;;;;25.58;20.20;;;6.30;99.90;;;;;;5052557;28;20618;-40
2021/04/19 05:21:48;;;;;;;27.10;22.00;;;6.30;99.90;;;;;;5052503;28;20294;-40
2021/04/19 05:24:15;;;;;;;23.63;20.48;;;6.30;99.90;;;;;;5052050;28;20259;-40
2021/04/19 05:26:43;;;;;;;25.80;19.27;;;6.40;99.90;;;;;;5052380;28;20208;-40
2021/04/19 05:29:10;;;;;;;25.02;19.98;;;6.30;99.90;;;;;;5052373;28;20208;-40
2021/04/19 05:31:37;;;;;;;25.70;20.65;;;6.30;99.90;;;;;;5052021;28;20334;-41
2021/04/19 05:34:05;;;;;;;27.00;20.42;;;6.40;99.90;;;;;;5052024;28;20281;-40
2021/04/19 05:36:32;;;;;;;26.67;20.17;;;6.40;99.90;;;;;;5051910;28;20303;-40
2021/04/19 05:39:00;;;;;;;24.33;19.33;;;6.30;99.90;;;;;;5052261;28;20298;-40
2021/04/19 05:41:27;;;;;;;25.70;20.73;;;6.30;99.90;;;;;;5051439;28;20318;-40
2021/04/19 05:43:55;;;;;;;23.42;19.73;;;6.30;99.90;;;;;;5051654;28;20267;-40
2021/04/19 05:46:22;;;;;;;24.85;22.15;;;6.40;99.90;;;;;;5051994;28;20299;-40
2021/04/19 05:48:49;;;;;;;26.30;20.42;;;6.40;99.90;;;;;;5051747;28;20208;-40
2021/04/19 05:51:21;;;;;;;27.25;22.08;;;6.40;99.90;;;;;;5051490;28;20294;-41
2021/04/19 05:53:52;;;;;;;23.88;19.65;;;6.50;99.90;;;;;;5051556;28;20200;-40
2021/04/19 05:56:28;;;;;;;23.70;20.38;;;6.60;99.90;;;;;;5051812;28;20340;-40
2021/04/19 05:59:02;;;;;;;27.33;20.75;;;6.60;99.90;;;;;;5051739;28;20617;-41
2021/04/19 06:01:31;;;;;;;26.58;21.35;;;6.70;99.90;;;;;;5051383;28;20315;-41
2021/04/19 06:04:05;;;;;;;25.27;21.58;;;6.70;99.90;;;;;;5051849;28;20259;-40
2021/04/19 06:06:40;;;;;;;28.90;25.75;;;6.70;99.90;;;;;;5051576;28;20208;-41
2021/04/19 06:09:14;;;;;;;34.42;27.05;;;6.80;99.90;;;;;;5051708;28;20317;-41
2021/04/19 06:11:44;;;;;;;35.00;30.92;;;6.80;99.90;;;;;;5051566;28;20298;-40
2021/04/19 06:14:15;;;;;;;46.08;30.80;;;6.90;99.90;;;;;;5051434;28;20232;-41
2021/04/19 06:16:43;;;;;;;31.55;24.45;;;7.10;99.90;;;;;;5051407;28;20207;-41
2021/04/19 06:19:12;;;;;;;31.50;23.85;;;7.10;99.90;;;;;;5051536;28;20622;-41
2021/04/19 06:21:39;;;;;;;25.02;21.17;;;7.10;99.90;;;;;;5051594;28;20427;-41
2021/04/19 06:24:08;;;;;;;24.63;21.85;;;7.20;99.90;;;;;;5051377;28;20223;-41
2021/04/19 06:26:36;;;;;;;24.67;21.10;;;7.30;99.90;;;;;;5051307;28;20212;-41
2021/04/19 06:29:04;;;;;;;27.40;22.50;;;7.50;99.90;;;;;;5051453;28;20214;-41
2021/04/19 06:31:33;;;;;;;27.02;22.05;;;7.50;99.90;;;;;;5051388;28;20244;-41
2021/04/19 06:34:09;;;;;;;27.50;21.23;;;7.60;99.90;;;;;;5051479;28;20289;-42
2021/04/19 06:36:38;;;;;;;23.65;20.73;;;7.70;99.90;;;;;;5051355;28;20251;-43
2021/04/19 06:39:07;;;;;;;27.52;22.38;;;7.80;99.90;;;;;;5051537;28;20666;-41
2021/04/19 06:41:34;;;;;;;28.23;22.88;;;7.80;99.90;;;;;;5051253;28;20212;-41
2021/04/19 06:44:03;;;;;;;24.65;20.83;;;7.90;99.90;;;;;;5051436;28;20224;-41
2021/04/19 06:46:32;;;;;;;23.92;21.33;;;8.00;99.90;;;;;;5051340;28;20244;-41
2021/04/19 06:49:00;;;;;;;25.98;23.02;;;8.20;99.90;;;;;;5050879;28;20212;-40
2021/04/19 06:51:29;;;;;;;23.40;20.02;;;8.30;99.90;;;;;;5050816;28;20216;-40
2021/04/19 06:53:57;;;;;;;24.80;22.25;;;8.40;99.90;;;;;;5050742;28;20255;-41
2021/04/19 06:56:25;;;;;;;25.20;20.88;;;8.50;99.90;;;;;;5051045;28;20240;-40
2021/04/19 06:58:54;;;;;;;26.35;21.92;;;8.60;99.90;;;;;;5050905;28;20585;-40
2021/04/19 07:01:22;;;;;;;25.98;23.17;;;8.70;99.90;;;;;;5050822;28;20299;-40
2021/04/19 07:03:56;;;;;;;24.13;19.38;;;8.90;99.90;;;;;;5050891;28;20208;-40
2021/04/19 07:06:27;;;;;;;25.25;22.20;;;9.00;99.90;;;;;;5053389;28;20254;-40
2021/04/19 07:09:03;;;;;;;26.58;22.67;;;9.20;99.80;;;;;;5055003;28;20211;-40
2021/04/19 07:11:35;;;;;;;22.83;20.35;;;9.30;99.50;;;;;;5054841;28;20302;-40
2021/04/19 07:14:03;;;;;;;24.23;21.45;;;9.50;99.30;;;;;;5054548;28;20204;-40
2021/04/19 07:16:30;;;;;;;25.17;22.45;;;9.60;99.10;;;;;;5054637;28;20208;-40
2021/04/19 07:18:58;;;;;;;26.08;22.80;;;9.70;98.90;;;;;;5054363;28;20584;-40
2021/04/19 07:21:26;;;;;;;23.55;21.08;;;9.80;98.80;;;;;;5054314;28;20232;-41
2021/04/19 07:23:54;;;;;;;24.83;20.75;;;9.90;98.50;;;;;;5054248;28;20299;-41
2021/04/19 07:26:21;;;;;;;22.42;20.13;;;9.80;98.60;;;;;;5054353;28;20637;-41
2021/04/19 07:28:48;;;;;;;23.73;19.27;;;9.90;98.50;;;;;;5054215;28;20628;-40
2021/04/19 07:31:17;;;;;;;22.35;19.70;;;10.00;98.50;;;;;;5054014;28;20712;-41
2021/04/19 07:33:45;;;;;;;25.67;21.15;;;10.00;98.50;;;;;;5054161;28;20267;-40
2021/04/19 07:36:29;;;;;;;22.83;19.88;;;10.20;98.40;;;;;;5054154;28;20287;-41
2021/04/19 07:38:59;;;;;;;23.15;19.88;;;10.40;98.00;;;;;;5054474;28;20208;-41
2021/04/19 07:41:45;;;;;;;22.85;20.10;;;10.50;97.70;;;;;;5054107;28;20387;-41
2021/04/19 07:44:12;;;;;;;22.85;18.33;;;10.40;97.80;;;;;;5054097;28;20689;-41
2021/04/19 07:46:40;;;;;;;22.00;19.70;;;10.50;97.70;;;;;;5054128;28;20300;-45
2021/04/19 07:49:08;;;;;;;24.25;20.08;;;10.50;97.70;;;;;;5053926;28;20204;-41
2021/04/19 07:51:37;;;;;;;21.10;19.00;;;10.50;97.60;;;;;;5053753;28;20722;-41
2021/04/19 07:54:20;;;;;;;23.67;18.90;;;10.60;97.50;;;;;;5053767;28;20287;-41
2021/04/19 07:57:06;;;;;;;23.23;19.67;;;10.70;97.40;;;;;;5054155;28;20640;-43
2021/04/19 07:59:36;;;;;;;19.95;17.85;;;10.90;97.00;;;;;;5054009;28;20330;-43
2021/04/19 08:02:06;;;;;;;22.52;18.55;;;11.00;96.90;;;;;;5053983;28;20251;-45
2021/04/19 08:04:35;;;;;;;19.88;17.73;;;11.10;96.60;;;;;;5054175;28;20306;-45
2021/04/19 08:07:03;;;;;;;22.40;18.05;;;11.20;96.40;;;;;;5053995;28;20204;-43
2021/04/19 08:09:32;;;;;;;21.23;17.80;;;11.30;96.40;;;;;;5053938;28;20247;-44
2021/04/19 08:12:07;;;;;;;21.83;17.85;;;11.50;96.10;;;;;;5053946;28;20242;-41
2021/04/19 08:14:34;;;;;;;20.38;18.15;;;11.60;96.00;;;;;;5053384;28;20678;-42
2021/04/19 08:17:06;;;;;;;20.67;18.48;;;11.70;95.80;;;;;;5052026;28;20577;-41
2021/04/19 08:19:34;;;;;;;23.38;19.23;;;11.80;95.50;;;;;;5053564;28;20219;-41
2021/04/19 08:22:14;;;;;;;23.23;18.55;;;11.80;95.50;;;;;;5053483;28;20208;-42
2021/04/19 08:24:41;;;;;;;19.92;17.27;;;11.80;95.30;;;;;;5053471;28;20223;-41
2021/04/19 08:27:17;;;;;;;22.05;18.17;;;11.80;95.30;;;;;;5053474;28;20262;-41
2021/04/19 08:29:46;;;;;;;22.25;19.45;;;11.80;95.40;;;;;;5053389;28;20299;-42
2021/04/19 08:32:15;;;;;;;23.30;18.85;;;11.90;95.20;;;;;;5053260;28;20319;-42
2021/04/19 08:34:43;;;;;;;21.48;18.67;;;12.00;95.00;;;;;;5053220;28;20694;-42
2021/04/19 08:37:11;;;;;;;19.48;17.42;;;12.00;94.90;;;;;;5053455;28;20316;-42
2021/04/19 08:39:40;;;;;;;20.83;17.77;;;12.10;94.80;;;;;;5053153;28;20216;-42
2021/04/19 08:42:23;;;;;;;19.92;16.98;;;12.10;94.80;;;;;;5053170;28;20286;-42
2021/04/19 08:44:52;;;;;;;20.90;18.58;;;12.20;94.60;;;;;;5053232;28;20230;-42
2021/04/19 08:47:20;;;;;;;24.25;18.58;;;12.30;94.40;;;;;;5053070;28;20247;-41
2021/04/19 08:49:48;;;;;;;21.42;18.15;;;12.30;94.30;;;;;;5053222;28;20208;-42
2021/04/19 08:52:16;;;;;;;24.55;18.45;;;12.40;94.10;;;;;;5052899;28;20614;-44
2021/04/19 08:54:45;;;;;;;19.15;17.10;;;12.50;94.00;;;;;;5052793;28;20204;-43
2021/04/19 08:57:12;;;;;;;18.58;16.27;;;12.70;93.80;;;;;;5053209;28;20208;-43
2021/04/19 08:59:43;;;;;;;19.45;17.00;;;12.80;93.60;;;;;;5053038;28;20298;-42
2021/04/19 09:02:11;;;;;;;20.05;17.60;;;12.80;93.30;;;;;;5052655;28;20726;-42
2021/04/19 09:04:38;;;;;;;17.55;15.75;;;12.80;93.30;;;;;;5052849;28;20242;-42
2021/04/19 09:07:05;;;;;;;18.27;15.35;;;12.90;93.20;;;;;;5052647;28;20245;-43
2021/04/19 09:09:39;;;;;;;19.35;16.17;;;12.90;92.60;;;;;;5052971;28;20291;-42
2021/04/19 09:12:26;;;;;;;17.45;15.70;;;13.00;92.60;;;;;;5052808;28;20235;-42
2021/04/19 09:15:10;;;;;;;17.40;15.68;;;13.20;92.30;;;;;;5052477;28;20254;-45
2021/04/19 09:17:38;;;;;;;15.05;12.98;;;13.30;91.90;;;;;;5050352;28;20247;-41
2021/04/19 09:20:08;;;;;;;17.13;14.73;;;13.30;91.60;;;;;;5052582;28;20294;-41
2021/04/19 09:22:36;;;;;;;17.60;15.80;;;13.30;91.50;;;;;;5052521;28;20287;-42
2021/04/19 09:25:09;;;;;;;18.02;15.23;;;13.20;91.60;;;;;;5052314;28;20312;-42
2021/04/19 09:27:44;;;;;;;16.52;14.82;;;13.20;91.70;;;;;;5052315;28;20705;-41
2021/04/19 09:30:45;;;;;;;17.63;14.30;;;13.30;91.40;;;;;;5052176;28;20246;-43
2021/04/19 09:33:21;;;;;;;15.70;14.02;;;13.20;91.20;;;;;;5052202;28;20207;-43
2021/04/19 09:35:52;;;;;;;16.75;14.30;;;13.30;91.40;;;;;;5052401;28;20674;-41
2021/04/19 09:38:49;;;;;;;17.25;15.43;;;13.40;91.00;;;;;;5052028;28;20634;-42
2021/04/19 09:41:18;;;;;;;15.18;13.57;;;13.30;90.80;;;;;;5052285;28;20248;-43
2021/04/19 09:43:49;;;;;;;16.42;14.70;;;13.40;90.80;;;;;;5052153;28;20235;-42
2021/04/19 09:46:51;;;;;;;15.52;13.98;;;13.40;90.50;;;;;;5052315;28;20255;-41
2021/04/19 09:49:22;;;;;;;18.40;14.98;;;13.50;90.30;;;;;;5035472;28;20222;-41
2021/04/19 09:51:49;;;;;;;13.75;12.40;;;13.80;90.10;;;;;;5052059;28;20356;-41
2021/04/19 09:54:18;;;;;;;16.15;12.95;;;13.90;89.50;;;;;;5052042;28;20447;-47
2021/04/19 09:56:49;;;;;;;12.70;11.50;;;14.10;88.90;;;;;;5052049;28;20302;-42
2021/04/19 09:59:17;;;;;;;15.32;12.93;;;14.20;87.70;;;;;;5051584;28;20215;-43
2021/04/19 10:01:47;;;;;;;14.48;12.57;;;14.50;86.80;;;;;;5051803;28;20346;-42
2021/04/19 10:04:14;;;;;;;13.70;12.30;;;14.90;85.10;;;;;;5051998;28;20210;-43
2021/04/19 10:06:44;;;;;;;17.45;12.93;;;15.20;84.20;;;;;;5051851;28;20208;-44
2021/04/19 10:09:15;;;;;;;14.60;10.20;;;15.50;83.20;;;;;;5051768;28;20208;-44
2021/04/19 10:11:44;;;;;;;12.98;11.55;;;15.70;81.70;;;;;;5051722;28;20207;-45
2021/04/19 10:14:14;;;;;;;12.20;11.00;;;15.90;80.40;;;;;;5051948;28;20239;-43
2021/04/19 10:16:46;;;;;;;11.50;10.23;;;15.70;78.70;;;;;;5051701;28;20262;-43
2021/04/19 10:19:22;;;;;;;11.45;10.13;;;15.50;79.80;;;;;;5051647;28;20208;-43
2021/04/19 10:21:57;;;;;;;11.68;10.35;;;15.20;79.70;;;;;;5051640;28;20633;-41
2021/04/19 10:24:24;;;;;;;11.05;9.95;;;15.00;80.00;;;;;;5051925;28;20643;-41
2021/04/19 10:26:51;;;;;;;11.20;10.10;;;14.90;80.40;;;;;;5051550;28;20250;-41
2021/04/19 10:29:22;;;;;;;9.27;8.40;;;15.00;80.00;;;;;;5051835;28;20216;-40
2021/04/19 10:31:50;;;;;;;11.55;10.27;;;15.20;79.20;;;;;;5051651;28;20266;-40
2021/04/19 10:34:18;;;;;;;10.27;9.18;;;15.10;78.30;;;;;;5051672;28;20204;-40
2021/04/19 10:36:48;;;;;;;10.32;9.18;;;15.20;78.30;;;;;;5051685;28;20239;-40
2021/04/19 10:39:17;;;;;;;10.75;9.65;;;15.10;77.30;;;;;;5052191;28;20679;-40
2021/04/19 10:41:47;;;;;;;11.38;10.27;;;14.90;77.90;;;;;;5054684;28;20247;-42
2021/04/19 10:44:16;;;;;;;14.30;12.88;;;14.70;78.50;;;;;;5055739;28;20291;-41
2021/04/19 10:46:44;;;;;;;14.77;11.55;;;14.60;79.70;;;;;;5055477;28;20638;-41
2021/04/19 10:49:22;;;;;;;15.13;13.63;;;14.60;80.10;;;;;;5055394;28;20273;-41
2021/04/19 10:51:54;;;;;;;13.60;12.25;;;14.60;80.20;;;;;;5055409;28;20756;-41
2021/04/19 10:54:26;;;;;;;13.63;12.23;;;14.60;80.20;;;;;;5055275;28;20224;-41
2021/04/19 10:56:53;;;;;;;14.32;12.95;;;14.40;80.60;;;;;;5054952;28;20207;-42
2021/04/19 10:59:23;;;;;;;14.85;13.30;;;14.20;81.50;;;;;;5054653;28;20250;-42
2021/04/19 11:01:58;;;;;;;16.58;14.57;;;14.20;82.00;;;;;;5054503;28;20203;-46
2021/04/19 11:04:26;;;;;;;15.93;14.15;;;14.30;83.20;;;;;;5054498;28;20207;-43
2021/04/19 11:06:55;;;;;;;15.90;14.35;;;14.40;82.60;;;;;;5054495;28;20659;-43
2021/04/19 11:09:26;;;;;;;16.20;14.30;;;14.40;82.50;;;;;;5054777;28;20281;-43
2021/04/19 11:11:54;;;;;;;18.13;15.65;;;14.50;82.50;;;;;;5054804;28;20511;-44
2021/04/19 11:14:24;;;;;;;18.00;13.23;;;14.70;82.30;;;;;;5054425;28;20295;-43
2021/04/19 11:16:58;;;;;;;14.23;12.32;;;14.80;81.70;;;;;;5054651;28;20211;-44
2021/04/19 11:19:33;;;;;;;16.50;13.88;;;14.80;81.30;;;;;;5054293;28;20306;-45
2021/04/19 11:22:00;;;;;;;14.80;13.20;;;14.80;81.20;;;;;;5054333;28;20294;-43
2021/04/19 11:24:38;;;;;;;15.85;12.70;;;14.70;81.20;;;;;;5054296;28;20204;-43
2021/04/19 11:27:07;;;;;;;15.98;13.70;;;14.50;81.50;;;;;;5054184;28;20250;-42
2021/04/19 11:29:38;;;;;;;15.82;14.23;;;14.50;82.10;;;;;;5053974;28;20702;-43
2021/04/19 11:32:07;;;;;;;18.45;14.10;;;14.60;82.10;;;;;;5053940;28;20275;-39
2021/04/19 11:34:36;;;;;;;15.00;13.45;;;14.80;81.60;;;;;;5054009;28;20219;-42
2021/04/19 11:37:29;;;;;;;14.95;13.45;;;14.90;81.10;;;;;;5054009;28;20270;-41
2021/04/19 11:39:57;;;;;;;15.27;13.68;;;14.70;80.90;;;;;;5054495;28;20242;-42
2021/04/19 11:42:29;;;;;;;14.82;13.27;;;14.50;81.60;;;;;;5054518;28;20299;-41
2021/04/19 11:44:56;;;;;;;16.88;12.63;;;14.60;81.20;;;;;;5054269;28;20319;-41
2021/04/19 11:47:23;;;;;;;13.18;11.88;;;14.80;80.80;;;;;;5054149;28;20205;-41
2021/04/19 11:49:52;;;;;;;17.33;13.63;;;14.90;80.40;;;;;;5054589;28;20208;-42
2021/04/19 11:52:19;;;;;;;15.40;13.77;;;15.10;80.00;;;;;;5054091;28;20291;-43
2021/04/19 11:54:46;;;;;;;14.63;13.10;;;15.10;79.90;;;;;;5054201;28;20327;-44
2021/04/19 11:57:14;;;;;;;14.70;13.18;;;14.90;80.00;;;;;;5054034;28;20216;-44
2021/04/19 11:59:41;;;;;;;15.50;13.15;;;14.80;80.10;;;;;;5054087;28;20342;-45
2021/04/19 12:02:09;;;;;;;14.43;12.25;;;14.80;79.70;;;;;;5054172;28;20258;-44
2021/04/19 12:04:37;;;;;;;17.13;13.35;;;14.80;79.70;;;;;;5054113;28;20291;-43
2021/04/19 12:07:04;;;;;;;13.20;11.80;;;14.90;79.30;;;;;;5054211;28;20273;-47
2021/04/19 12:09:31;;;;;;;14.93;13.27;;;15.00;79.60;;;;;;5053581;28;20299;-43
2021/04/19 12:11:58;;;;;;;14.77;12.25;;;15.10;78.20;;;;;;5053845;28;20235;-43
2021/04/19 12:14:26;;;;;;;12.82;11.55;;;15.20;78.00;;;;;;5052792;28;20269;-43
2021/04/19 12:16:55;;;;;;;14.65;12.60;;;15.20;77.90;;;;;;5053603;28;20240;-44
2021/04/19 12:19:23;;;;;;;15.38;13.15;;;15.30;77.60;;;;;;5053822;28;20240;-44
2021/04/19 12:21:51;;;;;;;13.82;12.43;;;15.40;77.30;;;;;;5053633;28;20243;-46
2021/04/19 12:24:18;;;;;;;16.05;13.80;;;15.40;76.70;;;;;;5053680;28;20224;-43
2021/04/19 12:26:45;;;;;;;14.00;12.52;;;15.40;76.90;;;;;;5055584;28;20228;-44
2021/04/19 12:29:13;;;;;;;13.57;12.20;;;15.30;76.80;;;;;;5054630;28;20313;-45
2021/04/19 12:31:41;;;;;;;15.82;13.43;;;15.40;76.90;;;;;;5054896;28;20305;-46
2021/04/19 12:34:09;;;;;;;14.52;12.98;;;15.60;76.10;;;;;;5054703;28;20225;-46
2021/04/19 12:36:36;;;;;;;12.93;11.68;;;15.80;75.40;;;;;;5055032;28;20265;-45
2021/04/19 12:39:06;;;;;;;13.18;11.25;;;16.00;74.50;;;;;;5054872;28;20216;-47
2021/04/19 12:41:33;;;;;;;11.15;10.05;;;16.10;73.90;;;;;;5054557;28;20236;-47
2021/04/19 12:44:00;;;;;;;11.52;10.32;;;16.10;72.70;;;;;;5054290;28;20254;-46
2021/04/19 12:46:27;;;;;;;16.20;14.73;;;15.90;72.40;;;;;;5054565;28;20698;-47